createdAt,value
2017-06-13T00:00:26.675Z,15.43
2017-06-13T00:01:27.250Z,15.51
2017-06-13T00:02:27.826Z,15.49
2017-06-13T00:03:28.400Z,15.44
2017-06-13T00:04:28.976Z,15.49
2017-06-13T00:05:29.551Z,15.49
2017-06-13T00:06:30.126Z,15.54
2017-06-13T00:07:30.700Z,15.44
2017-06-13T00:08:31.275Z,15.54
2017-06-13T00:09:31.850Z,15.47
2017-06-13T00:10:32.425Z,15.55
2017-06-13T00:11:33.012Z,15.47
2017-06-13T00:12:33.588Z,15.54
2017-06-13T00:13:34.174Z,15.57
2017-06-13T00:14:34.748Z,15.49
2017-06-13T00:15:35.324Z,15.49
2017-06-13T00:16:35.898Z,15.55
2017-06-13T00:17:36.471Z,15.54
2017-06-13T00:18:37.046Z,15.62
2017-06-13T00:19:37.621Z,15.59
2017-06-13T00:20:38.195Z,15.57
2017-06-13T00:21:38.771Z,15.59
2017-06-13T00:22:39.345Z,15.62
2017-06-13T00:23:39.921Z,15.52
2017-06-13T00:24:40.496Z,15.47
2017-06-13T00:25:41.070Z,15.44
2017-06-13T00:26:41.644Z,15.49
2017-06-13T00:27:42.220Z,15.42
2017-06-13T00:28:42.808Z,15.39
2017-06-13T00:29:43.381Z,15.36
2017-06-13T00:30:43.958Z,15.44
2017-06-13T00:31:44.532Z,15.37
2017-06-13T00:32:45.109Z,15.42
2017-06-13T00:33:45.683Z,15.37
2017-06-13T00:34:46.270Z,15.39
2017-06-13T00:35:46.847Z,15.46
2017-06-13T00:36:47.422Z,15.44
2017-06-13T00:37:47.998Z,15.39
2017-06-13T00:38:48.573Z,15.37
2017-06-13T00:39:49.150Z,15.46
2017-06-13T00:40:49.738Z,15.54
2017-06-13T00:41:50.313Z,15.37
2017-06-13T00:42:50.890Z,15.39
2017-06-13T00:43:51.464Z,15.44
2017-06-13T00:44:52.040Z,15.40
2017-06-13T00:45:52.616Z,15.39
2017-06-13T00:46:53.192Z,15.40
2017-06-13T00:47:53.766Z,15.39
2017-06-13T00:48:54.342Z,15.42
2017-06-13T00:49:54.917Z,15.44
2017-06-13T00:50:55.493Z,15.42
2017-06-13T00:51:56.068Z,15.35
2017-06-13T00:52:56.643Z,15.35
2017-06-13T00:53:57.218Z,15.36
2017-06-13T00:54:57.792Z,15.37
2017-06-13T00:55:58.366Z,15.31
2017-06-13T00:56:58.940Z,15.29
2017-06-13T00:57:59.515Z,15.37
2017-06-13T00:59:00.102Z,15.29
2017-06-13T01:00:00.679Z,15.44
2017-06-13T01:01:01.254Z,15.40
2017-06-13T01:02:01.840Z,15.33
2017-06-13T01:03:02.414Z,15.27
2017-06-13T01:04:02.989Z,15.37
2017-06-13T01:05:03.563Z,15.37
2017-06-13T01:06:04.139Z,15.43
2017-06-13T01:07:04.713Z,15.40
2017-06-13T01:08:05.288Z,15.43
2017-06-13T01:09:05.863Z,15.37
2017-06-13T01:10:06.439Z,15.33
2017-06-13T01:11:07.015Z,15.36
2017-06-13T01:12:07.602Z,15.33
2017-06-13T01:13:08.177Z,15.31
2017-06-13T01:14:08.753Z,15.36
2017-06-13T01:15:09.326Z,15.39
2017-06-13T01:16:09.903Z,15.36
2017-06-13T01:17:10.476Z,15.36
2017-06-13T01:18:11.049Z,15.36
2017-06-13T01:19:11.625Z,15.31
2017-06-13T01:20:12.198Z,15.29
2017-06-13T01:21:12.785Z,15.37
2017-06-13T01:22:13.366Z,15.29
2017-06-13T01:23:13.937Z,15.31
2017-06-13T01:24:14.513Z,15.39
2017-06-13T01:25:15.088Z,15.27
2017-06-13T01:26:15.662Z,15.35
2017-06-13T01:27:16.241Z,15.40
2017-06-13T01:28:16.813Z,15.28
2017-06-13T01:29:17.388Z,15.29
2017-06-13T01:30:17.962Z,15.29
2017-06-13T01:31:18.537Z,15.29
2017-06-13T01:32:19.117Z,15.29
2017-06-13T01:33:19.690Z,15.29
2017-06-13T01:34:20.262Z,15.31
2017-06-13T01:35:20.836Z,15.27
2017-06-13T01:36:21.410Z,15.22
2017-06-13T01:37:21.985Z,15.36
2017-06-13T01:38:22.560Z,15.29
2017-06-13T01:39:23.134Z,15.28
2017-06-13T01:40:23.709Z,15.21
2017-06-13T01:41:24.282Z,15.29
2017-06-13T01:42:24.857Z,15.28
2017-06-13T01:43:25.431Z,15.40
2017-06-13T01:44:26.004Z,15.39
2017-06-13T01:45:26.578Z,15.28
2017-06-13T01:46:27.152Z,15.29
2017-06-13T01:47:27.726Z,15.29
2017-06-13T01:48:28.302Z,15.28
2017-06-13T01:49:28.876Z,15.27
2017-06-13T01:50:29.450Z,15.27
2017-06-13T01:51:30.024Z,15.25
2017-06-13T01:52:30.599Z,15.31
2017-06-13T01:53:31.174Z,15.27
2017-06-13T01:54:31.748Z,15.22
2017-06-13T01:55:32.322Z,15.29
2017-06-13T01:56:32.897Z,15.25
2017-06-13T01:57:33.471Z,15.27
2017-06-13T01:58:34.046Z,15.27
2017-06-13T01:59:34.620Z,15.31
2017-06-13T02:00:35.195Z,15.25
2017-06-13T02:01:35.770Z,15.29
2017-06-13T02:02:36.356Z,15.29
2017-06-13T02:03:36.932Z,15.24
2017-06-13T02:04:37.507Z,15.31
2017-06-13T02:05:38.083Z,15.27
2017-06-13T02:06:38.658Z,15.25
2017-06-13T02:07:39.233Z,15.27
2017-06-13T02:08:39.807Z,15.28
2017-06-13T02:09:40.384Z,15.24
2017-06-13T02:10:40.957Z,15.24
2017-06-13T02:11:41.533Z,15.27
2017-06-13T02:12:42.107Z,15.21
2017-06-13T02:13:42.681Z,15.22
2017-06-13T02:14:43.255Z,15.28
2017-06-13T02:15:43.829Z,15.17
2017-06-13T02:16:44.407Z,15.24
2017-06-13T02:17:44.978Z,15.25
2017-06-13T02:18:45.553Z,15.25
2017-06-13T02:19:46.140Z,15.29
2017-06-13T02:20:46.714Z,15.27
2017-06-13T02:21:47.289Z,15.15
2017-06-13T02:22:47.876Z,15.25
2017-06-13T02:23:48.451Z,15.21
2017-06-13T02:24:49.027Z,15.18
2017-06-13T02:25:49.604Z,15.17
2017-06-13T02:26:50.180Z,15.35
2017-06-13T02:27:50.765Z,15.18
2017-06-13T02:28:51.339Z,15.22
2017-06-13T02:29:51.913Z,15.18
2017-06-13T02:30:52.488Z,15.18
2017-06-13T02:31:53.062Z,15.27
2017-06-13T02:32:53.641Z,15.22
2017-06-13T02:33:54.211Z,15.24
2017-06-13T02:34:54.787Z,15.28
2017-06-13T02:35:55.363Z,15.25
2017-06-13T02:36:55.936Z,15.27
2017-06-13T02:37:56.510Z,15.19
2017-06-13T02:38:57.085Z,15.19
2017-06-13T02:39:57.658Z,15.18
2017-06-13T02:40:58.232Z,15.18
2017-06-13T02:41:58.806Z,15.28
2017-06-13T02:42:59.394Z,15.11
2017-06-13T02:43:59.968Z,15.28
2017-06-13T02:45:00.545Z,15.24
2017-06-13T02:46:01.133Z,15.25
2017-06-13T02:47:01.708Z,15.19
2017-06-13T02:48:02.285Z,15.18
2017-06-13T02:49:02.859Z,15.29
2017-06-13T02:50:03.436Z,15.21
2017-06-13T02:51:04.010Z,15.25
2017-06-13T02:52:04.586Z,15.21
2017-06-13T02:53:05.161Z,15.18
2017-06-13T02:54:05.736Z,15.15
2017-06-13T02:55:06.311Z,15.17
2017-06-13T02:56:06.885Z,15.15
2017-06-13T02:57:07.461Z,15.17
2017-06-13T02:58:08.034Z,15.17
2017-06-13T02:59:08.610Z,15.15
2017-06-13T03:00:09.184Z,15.15
2017-06-13T03:01:09.758Z,15.14
2017-06-13T03:02:10.333Z,15.22
2017-06-13T03:03:10.919Z,15.24
2017-06-13T03:04:11.494Z,15.31
2017-06-13T03:05:12.074Z,15.14
2017-06-13T03:06:12.645Z,15.28
2017-06-13T03:07:13.222Z,15.15
2017-06-13T03:08:13.795Z,15.17
2017-06-13T03:09:14.371Z,15.15
2017-06-13T03:10:14.944Z,15.17
2017-06-13T03:11:15.520Z,15.21
2017-06-13T03:12:16.095Z,15.24
2017-06-13T03:13:16.671Z,15.17
2017-06-13T03:14:17.245Z,15.18
2017-06-13T03:15:17.821Z,15.19
2017-06-13T03:16:18.408Z,15.21
2017-06-13T03:17:18.984Z,15.18
2017-06-13T03:18:19.560Z,15.18
2017-06-13T03:19:20.136Z,15.18
2017-06-13T03:20:20.713Z,15.21
2017-06-13T03:21:21.289Z,15.15
2017-06-13T03:22:21.864Z,15.17
2017-06-13T03:23:22.439Z,15.14
2017-06-13T03:24:23.015Z,15.14
2017-06-13T03:25:23.591Z,15.14
2017-06-13T03:26:24.168Z,15.15
2017-06-13T03:27:24.745Z,15.11
2017-06-13T03:28:25.345Z,15.10
2017-06-13T03:29:25.920Z,15.19
2017-06-13T03:30:26.496Z,15.18
2017-06-13T03:31:27.072Z,15.11
2017-06-13T03:32:27.648Z,15.10
2017-06-13T03:33:28.223Z,15.10
2017-06-13T03:34:28.799Z,15.17
2017-06-13T03:35:29.374Z,15.18
2017-06-13T03:36:29.950Z,15.15
2017-06-13T03:37:30.527Z,15.11
2017-06-13T03:38:31.104Z,15.19
2017-06-13T03:39:31.681Z,15.06
2017-06-13T03:40:32.257Z,15.09
2017-06-13T03:41:32.834Z,15.07
2017-06-13T03:42:33.409Z,15.09
2017-06-13T03:43:33.986Z,15.04
2017-06-13T03:44:34.561Z,15.11
2017-06-13T03:45:35.137Z,15.10
2017-06-13T03:46:35.712Z,15.03
2017-06-13T03:47:36.288Z,15.06
2017-06-13T03:48:36.866Z,15.03
2017-06-13T03:49:37.454Z,15.03
2017-06-13T03:50:38.029Z,15.04
2017-06-13T03:51:38.604Z,15.00
2017-06-13T03:52:39.179Z,14.94
2017-06-13T03:53:39.754Z,14.92
2017-06-13T03:54:40.331Z,14.99
2017-06-13T03:55:40.910Z,15.04
2017-06-13T03:56:41.488Z,14.97
2017-06-13T03:57:42.066Z,15.02
2017-06-13T03:58:42.643Z,15.02
2017-06-13T03:59:43.218Z,15.09
2017-06-13T04:00:43.794Z,15.06
2017-06-13T04:01:44.371Z,15.03
2017-06-13T04:02:44.949Z,15.11
2017-06-13T04:03:45.527Z,15.04
2017-06-13T04:04:46.116Z,15.03
2017-06-13T04:05:46.695Z,15.02
2017-06-13T04:06:47.271Z,15.04
2017-06-13T04:07:47.850Z,15.04
2017-06-13T04:08:48.426Z,15.07
2017-06-13T04:09:49.002Z,15.07
2017-06-13T04:10:49.578Z,15.09
2017-06-13T04:11:50.155Z,15.09
2017-06-13T04:12:50.732Z,15.04
2017-06-13T04:13:51.310Z,15.07
2017-06-13T04:14:51.888Z,15.09
2017-06-13T04:15:52.465Z,15.17
2017-06-13T04:16:53.043Z,15.10
2017-06-13T04:17:53.620Z,15.06
2017-06-13T04:18:54.197Z,15.11
2017-06-13T04:19:54.775Z,15.03
2017-06-13T04:20:55.353Z,15.06
2017-06-13T04:21:55.942Z,15.07
2017-06-13T04:22:56.521Z,15.07
2017-06-13T04:23:57.100Z,15.04
2017-06-13T04:24:57.679Z,15.17
2017-06-13T04:25:58.257Z,15.02
2017-06-13T04:26:58.833Z,15.07
2017-06-13T04:27:59.412Z,15.04
2017-06-13T04:28:59.990Z,15.07
2017-06-13T04:30:00.568Z,15.03
2017-06-13T04:31:01.146Z,14.99
2017-06-13T04:32:01.721Z,15.04
2017-06-13T04:33:02.298Z,15.03
2017-06-13T04:34:02.876Z,15.09
2017-06-13T04:35:03.455Z,15.04
2017-06-13T04:36:04.034Z,15.03
2017-06-13T04:37:04.613Z,15.04
2017-06-13T04:38:05.191Z,15.04
2017-06-13T04:39:05.781Z,15.10
2017-06-13T04:40:06.359Z,15.21
2017-06-13T04:41:06.936Z,15.07
2017-06-13T04:42:07.515Z,15.09
2017-06-13T04:43:08.094Z,15.10
2017-06-13T04:44:08.672Z,15.09
2017-06-13T04:45:09.250Z,15.15
2017-06-13T04:46:09.841Z,15.21
2017-06-13T04:47:10.419Z,15.15
2017-06-13T04:48:10.997Z,15.31
2017-06-13T04:49:11.574Z,15.22
2017-06-13T04:50:12.153Z,15.19
2017-06-13T04:51:12.732Z,15.31
2017-06-13T04:52:13.310Z,15.27
2017-06-13T04:53:13.888Z,15.35
2017-06-13T04:54:14.466Z,15.36
2017-06-13T04:55:15.044Z,15.25
2017-06-13T04:56:15.623Z,15.27
2017-06-13T04:57:16.201Z,15.33
2017-06-13T04:58:16.781Z,15.28
2017-06-13T04:59:17.372Z,15.37
2017-06-13T05:00:17.949Z,15.36
2017-06-13T05:01:18.526Z,15.47
2017-06-13T05:02:19.104Z,15.44
2017-06-13T05:03:19.683Z,15.40
2017-06-13T05:04:20.262Z,15.42
2017-06-13T05:05:20.839Z,15.39
2017-06-13T05:06:21.419Z,15.44
2017-06-13T05:07:21.996Z,15.54
2017-06-13T05:08:22.574Z,15.57
2017-06-13T05:09:23.154Z,15.55
2017-06-13T05:10:23.731Z,15.58
2017-06-13T05:11:24.311Z,15.70
2017-06-13T05:12:24.888Z,15.62
2017-06-13T05:13:25.466Z,15.70
2017-06-13T05:14:26.056Z,15.64
2017-06-13T05:15:26.635Z,15.65
2017-06-13T05:16:27.224Z,15.67
2017-06-13T05:17:27.803Z,15.70
2017-06-13T05:18:28.381Z,15.68
2017-06-13T05:19:28.971Z,15.67
2017-06-13T05:20:29.548Z,15.76
2017-06-13T05:21:30.125Z,15.65
2017-06-13T05:22:30.704Z,15.73
2017-06-13T05:23:31.284Z,15.75
2017-06-13T05:24:31.863Z,15.72
2017-06-13T05:25:32.452Z,15.73
2017-06-13T05:26:33.032Z,15.80
2017-06-13T05:27:33.610Z,15.84
2017-06-13T05:28:34.189Z,15.91
2017-06-13T05:29:34.767Z,15.70
2017-06-13T05:30:35.346Z,15.83
2017-06-13T05:31:35.925Z,16.02
2017-06-13T05:32:36.503Z,16.04
2017-06-13T05:33:37.081Z,16.08
2017-06-13T05:34:37.658Z,16.10
2017-06-13T05:35:38.237Z,16.09
2017-06-13T05:36:38.818Z,16.08
2017-06-13T05:37:39.395Z,16.21
2017-06-13T05:38:39.974Z,16.13
2017-06-13T05:39:40.552Z,16.02
2017-06-13T05:40:41.142Z,16.05
2017-06-13T05:41:41.721Z,16.08
2017-06-13T05:42:42.298Z,15.98
2017-06-13T05:43:42.879Z,15.91
2017-06-13T05:44:43.457Z,15.94
2017-06-13T05:45:44.036Z,16.12
2017-06-13T05:46:44.615Z,16.23
2017-06-13T05:47:45.192Z,16.33
2017-06-13T05:48:45.771Z,16.17
2017-06-13T05:49:46.351Z,16.39
2017-06-13T05:50:46.928Z,16.39
2017-06-13T05:51:47.507Z,16.33
2017-06-13T05:52:48.085Z,16.46
2017-06-13T05:53:48.662Z,16.35
2017-06-13T05:54:49.242Z,16.33
2017-06-13T05:55:49.822Z,16.43
2017-06-13T05:56:50.401Z,16.29
2017-06-13T05:57:50.979Z,16.33
2017-06-13T05:58:51.558Z,16.20
2017-06-13T05:59:52.137Z,16.32
2017-06-13T06:00:52.717Z,16.29
2017-06-13T06:01:53.298Z,16.28
2017-06-13T06:02:53.876Z,16.39
2017-06-13T06:03:54.454Z,16.35
2017-06-13T06:04:55.034Z,16.36
2017-06-13T06:05:55.613Z,16.42
2017-06-13T06:06:56.194Z,16.38
2017-06-13T06:07:56.771Z,16.51
2017-06-13T06:08:57.349Z,16.49
2017-06-13T06:09:57.929Z,16.69
2017-06-13T06:10:58.509Z,16.75
2017-06-13T06:11:59.089Z,16.50
2017-06-13T06:12:59.668Z,16.47
2017-06-13T06:14:00.258Z,16.57
2017-06-13T06:15:00.837Z,16.81
2017-06-13T06:16:01.415Z,16.83
2017-06-13T06:17:01.994Z,16.86
2017-06-13T06:18:02.574Z,16.99
2017-06-13T06:19:03.153Z,16.74
2017-06-13T06:20:03.733Z,16.84
2017-06-13T06:21:04.323Z,16.86
2017-06-13T06:22:04.901Z,16.96
2017-06-13T06:23:05.481Z,16.91
2017-06-13T06:24:06.059Z,16.86
2017-06-13T06:25:06.638Z,16.84
2017-06-13T06:26:07.219Z,16.79
2017-06-13T06:27:07.810Z,17.02
2017-06-13T06:28:08.387Z,17.12
2017-06-13T06:29:08.968Z,17.20
2017-06-13T06:30:09.547Z,16.94
2017-06-13T06:31:10.125Z,16.91
2017-06-13T06:32:10.703Z,16.91
2017-06-13T06:33:11.283Z,17.05
2017-06-13T06:34:11.863Z,17.27
2017-06-13T06:35:12.442Z,17.29
2017-06-13T06:36:13.021Z,17.01
2017-06-13T06:37:13.611Z,16.91
2017-06-13T06:38:14.190Z,16.90
2017-06-13T06:39:14.768Z,16.79
2017-06-13T06:40:15.347Z,16.79
2017-06-13T06:41:15.938Z,16.79
2017-06-13T06:42:16.516Z,16.99
2017-06-13T06:43:17.108Z,17.02
2017-06-13T06:44:17.687Z,17.19
2017-06-13T06:45:18.265Z,17.27
2017-06-13T06:46:18.844Z,17.34
2017-06-13T06:47:19.423Z,17.36
2017-06-13T06:48:20.004Z,17.52
2017-06-13T06:49:20.582Z,17.42
2017-06-13T06:50:21.162Z,17.29
2017-06-13T06:51:21.740Z,17.36
2017-06-13T06:52:22.331Z,17.41
2017-06-13T06:53:22.921Z,17.33
2017-06-13T06:54:23.506Z,17.16
2017-06-13T06:55:24.081Z,17.30
2017-06-13T06:56:24.660Z,17.11
2017-06-13T06:57:25.251Z,17.02
2017-06-13T06:58:25.829Z,17.27
2017-06-13T06:59:26.408Z,17.31
2017-06-13T07:00:26.989Z,17.48
2017-06-13T07:01:27.569Z,17.57
2017-06-13T07:02:28.150Z,17.54
2017-06-13T07:03:28.728Z,17.31
2017-06-13T07:04:29.307Z,17.34
2017-06-13T07:05:29.898Z,17.30
2017-06-13T07:06:30.477Z,17.41
2017-06-13T07:07:31.055Z,17.45
2017-06-13T07:08:31.636Z,17.30
2017-06-13T07:09:32.215Z,17.54
2017-06-13T07:10:32.795Z,17.87
2017-06-13T07:11:33.375Z,17.90
2017-06-13T07:12:33.953Z,17.70
2017-06-13T07:13:34.536Z,17.67
2017-06-13T07:14:35.126Z,17.38
2017-06-13T07:15:35.706Z,17.67
2017-06-13T07:16:36.287Z,17.45
2017-06-13T07:17:36.866Z,17.68
2017-06-13T07:18:37.448Z,17.68
2017-06-13T07:19:38.025Z,18.07
2017-06-13T07:20:38.605Z,18.08
2017-06-13T07:21:39.185Z,18.13
2017-06-13T07:22:39.764Z,18.13
2017-06-13T07:23:40.345Z,18.26
2017-06-13T07:24:40.923Z,18.23
2017-06-13T07:25:41.504Z,18.13
2017-06-13T07:26:42.082Z,17.89
2017-06-13T07:27:42.662Z,17.82
2017-06-13T07:28:43.243Z,17.79
2017-06-13T07:29:43.822Z,17.90
2017-06-13T07:30:44.402Z,17.72
2017-06-13T07:31:44.994Z,17.60
2017-06-13T07:32:45.572Z,17.79
2017-06-13T07:33:46.151Z,17.92
2017-06-13T07:34:46.742Z,17.82
2017-06-13T07:35:47.312Z,17.74
2017-06-13T07:36:47.893Z,17.60
2017-06-13T07:37:48.472Z,17.56
2017-06-13T07:38:49.051Z,17.67
2017-06-13T07:39:49.643Z,17.80
2017-06-13T07:40:50.235Z,17.92
2017-06-13T07:41:50.814Z,18.10
2017-06-13T07:42:51.394Z,18.10
2017-06-13T07:43:51.974Z,18.25
2017-06-13T07:44:52.555Z,18.49
2017-06-13T07:45:53.138Z,18.59
2017-06-13T07:46:53.720Z,18.63
2017-06-13T07:47:54.311Z,18.29
2017-06-13T07:48:54.892Z,18.28
2017-06-13T07:49:55.470Z,17.98
2017-06-13T07:50:56.049Z,18.10
2017-06-13T07:51:56.640Z,18.16
2017-06-13T07:52:57.219Z,18.04
2017-06-13T07:53:57.798Z,18.11
2017-06-13T07:54:58.379Z,18.11
2017-06-13T07:55:58.959Z,18.04
2017-06-13T07:56:59.541Z,18.13
2017-06-13T07:58:00.119Z,18.11
2017-06-13T07:59:00.699Z,18.13
2017-06-13T08:00:01.282Z,17.86
2017-06-13T08:01:01.861Z,17.70
2017-06-13T08:02:02.441Z,17.82
2017-06-13T08:03:03.021Z,17.86
2017-06-13T08:04:03.601Z,17.92
2017-06-13T08:05:04.193Z,18.03
2017-06-13T08:06:04.772Z,17.98
2017-06-13T08:07:05.352Z,18.31
2017-06-13T08:08:05.944Z,18.34
2017-06-13T08:09:06.523Z,18.28
2017-06-13T08:10:07.104Z,18.08
2017-06-13T08:11:07.685Z,17.95
2017-06-13T08:12:08.264Z,17.85
2017-06-13T08:13:08.856Z,17.82
2017-06-13T08:14:09.437Z,17.87
2017-06-13T08:15:10.017Z,17.89
2017-06-13T08:16:10.595Z,18.03
2017-06-13T08:17:11.174Z,17.82
2017-06-13T08:18:11.754Z,18.07
2017-06-13T08:19:12.335Z,17.92
2017-06-13T08:20:12.916Z,17.85
2017-06-13T08:21:13.497Z,18.10
2017-06-13T08:22:14.077Z,18.52
2017-06-13T08:23:14.659Z,18.55
2017-06-13T08:24:15.239Z,18.73
2017-06-13T08:25:15.818Z,18.43
2017-06-13T08:26:16.398Z,18.44
2017-06-13T08:27:16.977Z,18.34
2017-06-13T08:28:17.569Z,18.33
2017-06-13T08:29:18.140Z,18.45
2017-06-13T08:30:18.719Z,18.47
2017-06-13T08:31:19.298Z,18.49
2017-06-13T08:32:19.878Z,18.25
2017-06-13T08:33:20.458Z,18.53
2017-06-13T08:34:21.040Z,18.40
2017-06-13T08:35:21.618Z,18.20
2017-06-13T08:36:22.198Z,18.31
2017-06-13T08:37:22.778Z,18.15
2017-06-13T08:38:23.369Z,17.97
2017-06-13T08:39:23.950Z,18.07
2017-06-13T08:40:24.529Z,18.03
2017-06-13T08:41:25.109Z,18.08
2017-06-13T08:42:25.693Z,17.98
2017-06-13T08:43:26.270Z,18.00
2017-06-13T08:44:26.851Z,18.07
2017-06-13T08:45:27.435Z,17.95
2017-06-13T08:46:28.010Z,17.98
2017-06-13T08:47:28.592Z,18.00
2017-06-13T08:48:29.171Z,18.00
2017-06-13T08:49:29.752Z,18.03
2017-06-13T08:50:30.331Z,18.08
2017-06-13T08:51:30.910Z,18.05
2017-06-13T08:52:31.492Z,18.19
2017-06-13T08:53:32.071Z,18.37
2017-06-13T08:54:32.653Z,18.22
2017-06-13T08:55:33.232Z,18.31
2017-06-13T08:56:33.811Z,18.07
2017-06-13T08:57:34.393Z,18.28
2017-06-13T08:58:34.973Z,18.19
2017-06-13T08:59:35.555Z,18.37
2017-06-13T09:00:36.134Z,18.38
2017-06-13T09:01:36.713Z,18.43
2017-06-13T09:02:37.295Z,18.62
2017-06-13T09:03:37.874Z,18.56
2017-06-13T09:04:38.458Z,18.50
2017-06-13T09:05:39.038Z,18.58
2017-06-13T09:06:39.617Z,18.29
2017-06-13T09:07:40.198Z,18.60
2017-06-13T09:08:40.790Z,18.65
2017-06-13T09:09:41.371Z,18.59
2017-06-13T09:10:41.952Z,18.74
2017-06-13T09:11:42.533Z,18.60
2017-06-13T09:12:43.123Z,18.80
2017-06-13T09:13:43.705Z,18.84
2017-06-13T09:14:44.286Z,18.53
2017-06-13T09:15:44.864Z,18.49
2017-06-13T09:16:45.447Z,18.37
2017-06-13T09:17:46.028Z,18.53
2017-06-13T09:18:46.611Z,18.89
2017-06-13T09:19:47.191Z,18.84
2017-06-13T09:20:47.784Z,18.89
2017-06-13T09:21:48.365Z,18.86
2017-06-13T09:22:48.949Z,18.78
2017-06-13T09:23:49.529Z,18.65
2017-06-13T09:24:50.111Z,18.92
2017-06-13T09:25:50.692Z,19.15
2017-06-13T09:26:51.273Z,19.00
2017-06-13T09:27:51.865Z,19.02
2017-06-13T09:28:52.447Z,19.16
2017-06-13T09:29:53.028Z,19.29
2017-06-13T09:30:53.612Z,19.24
2017-06-13T09:31:54.193Z,19.09
2017-06-13T09:32:54.772Z,18.86
2017-06-13T09:33:55.354Z,18.90
2017-06-13T09:34:55.944Z,18.73
2017-06-13T09:35:56.525Z,18.84
2017-06-13T09:36:57.107Z,19.24
2017-06-13T09:37:57.687Z,18.95
2017-06-13T09:38:58.267Z,19.11
2017-06-13T09:39:58.847Z,19.02
2017-06-13T09:40:59.427Z,18.99
2017-06-13T09:42:00.009Z,19.14
2017-06-13T09:43:00.600Z,18.74
2017-06-13T09:44:01.182Z,18.62
2017-06-13T09:45:01.764Z,18.74
2017-06-13T09:46:02.343Z,18.68
2017-06-13T09:47:02.923Z,18.62
2017-06-13T09:48:03.504Z,18.74
2017-06-13T09:49:04.084Z,18.70
2017-06-13T09:50:04.668Z,18.88
2017-06-13T09:51:05.247Z,18.50
2017-06-13T09:52:05.827Z,18.75
2017-06-13T09:53:06.407Z,18.92
2017-06-13T09:54:06.987Z,18.56
2017-06-13T09:55:07.569Z,18.26
2017-06-13T09:56:08.148Z,18.45
2017-06-13T09:57:08.732Z,18.74
2017-06-13T09:58:09.312Z,18.86
2017-06-13T09:59:09.893Z,19.07
2017-06-13T10:00:10.476Z,19.08
2017-06-13T10:01:11.069Z,18.98
2017-06-13T10:02:11.652Z,19.02
2017-06-13T10:03:12.233Z,19.37
2017-06-13T10:04:12.815Z,19.48
2017-06-13T10:05:13.408Z,19.44
2017-06-13T10:06:13.989Z,19.47
2017-06-13T10:07:14.570Z,19.55
2017-06-13T10:08:15.151Z,19.56
2017-06-13T10:09:15.734Z,19.58
2017-06-13T10:10:16.314Z,19.62
2017-06-13T10:11:16.895Z,19.69
2017-06-13T10:12:17.478Z,19.55
2017-06-13T10:13:18.057Z,19.44
2017-06-13T10:14:18.641Z,19.62
2017-06-13T10:15:19.223Z,19.48
2017-06-13T10:16:19.803Z,19.70
2017-06-13T10:17:20.386Z,19.76
2017-06-13T10:18:20.968Z,19.66
2017-06-13T10:19:21.550Z,19.79
2017-06-13T10:20:22.143Z,19.76
2017-06-13T10:21:22.723Z,19.55
2017-06-13T10:22:23.304Z,19.37
2017-06-13T10:23:23.886Z,19.56
2017-06-13T10:24:24.481Z,19.67
2017-06-13T10:25:25.062Z,19.56
2017-06-13T10:26:25.645Z,19.76
2017-06-13T10:27:26.227Z,19.71
2017-06-13T10:28:26.808Z,19.74
2017-06-13T10:29:27.391Z,19.63
2017-06-13T10:30:27.974Z,19.54
2017-06-13T10:31:28.556Z,19.69
2017-06-13T10:32:29.136Z,19.58
2017-06-13T10:33:29.718Z,19.11
2017-06-13T10:34:30.309Z,19.00
2017-06-13T10:35:30.890Z,18.84
2017-06-13T10:36:31.471Z,19.08
2017-06-13T10:37:32.053Z,19.26
2017-06-13T10:38:32.633Z,19.02
2017-06-13T10:39:33.214Z,19.08
2017-06-13T10:40:33.793Z,19.04
2017-06-13T10:41:34.374Z,18.99
2017-06-13T10:42:34.966Z,18.83
2017-06-13T10:43:35.546Z,18.65
2017-06-13T10:44:36.127Z,18.95
2017-06-13T10:45:36.709Z,18.83
2017-06-13T10:46:37.289Z,18.52
2017-06-13T10:47:37.870Z,18.75
2017-06-13T10:48:38.450Z,18.68
2017-06-13T10:49:39.031Z,18.65
2017-06-13T10:50:39.612Z,18.80
2017-06-13T10:51:40.193Z,18.68
2017-06-13T10:52:40.775Z,19.00
2017-06-13T10:53:41.357Z,19.18
2017-06-13T10:54:41.938Z,18.81
2017-06-13T10:55:42.520Z,19.11
2017-06-13T10:56:43.101Z,19.29
2017-06-13T10:57:43.694Z,18.99
2017-06-13T10:58:44.277Z,19.30
2017-06-13T10:59:44.858Z,19.55
2017-06-13T11:00:45.440Z,19.74
2017-06-13T11:01:46.025Z,19.73
2017-06-13T11:02:46.604Z,19.76
2017-06-13T11:03:47.185Z,19.55
2017-06-13T11:04:47.766Z,19.74
2017-06-13T11:05:48.349Z,19.81
2017-06-13T11:06:48.932Z,19.76
2017-06-13T11:07:49.513Z,19.85
2017-06-13T11:08:50.094Z,19.76
2017-06-13T11:09:50.676Z,19.74
2017-06-13T11:10:51.259Z,20.02
2017-06-13T11:11:51.841Z,19.92
2017-06-13T11:12:52.422Z,20.03
2017-06-13T11:13:53.005Z,19.88
2017-06-13T11:14:53.588Z,19.76
2017-06-13T11:15:54.169Z,20.10
2017-06-13T11:16:54.749Z,20.07
2017-06-13T11:17:55.330Z,20.11
2017-06-13T11:18:55.919Z,20.18
2017-06-13T11:19:56.493Z,20.00
2017-06-13T11:20:57.074Z,20.07
2017-06-13T11:21:57.657Z,19.89
2017-06-13T11:22:58.236Z,19.95
2017-06-13T11:23:58.816Z,20.00
2017-06-13T11:24:59.409Z,19.82
2017-06-13T11:25:59.989Z,19.59
2017-06-13T11:27:00.569Z,19.59
2017-06-13T11:28:01.152Z,19.41
2017-06-13T11:29:01.733Z,19.39
2017-06-13T11:30:02.325Z,19.40
2017-06-13T11:31:02.908Z,19.39
2017-06-13T11:32:03.487Z,19.52
2017-06-13T11:33:04.068Z,19.47
2017-06-13T11:34:04.671Z,19.59
2017-06-13T11:35:05.254Z,19.52
2017-06-13T11:36:05.837Z,19.56
2017-06-13T11:37:06.428Z,19.82
2017-06-13T11:38:07.014Z,20.09
2017-06-13T11:39:07.593Z,19.88
2017-06-13T11:40:08.171Z,19.99
2017-06-13T11:41:08.751Z,20.25
2017-06-13T11:42:09.330Z,20.67
2017-06-13T11:43:09.913Z,20.50
2017-06-13T11:44:10.493Z,20.03
2017-06-13T11:45:11.075Z,19.94
2017-06-13T11:46:11.655Z,20.02
2017-06-13T11:47:12.235Z,19.99
2017-06-13T11:48:12.818Z,19.94
2017-06-13T11:49:13.398Z,20.10
2017-06-13T11:50:13.981Z,19.89
2017-06-13T11:51:14.561Z,19.94
2017-06-13T11:52:15.141Z,20.03
2017-06-13T11:53:15.723Z,19.79
2017-06-13T11:54:16.303Z,19.59
2017-06-13T11:55:16.886Z,19.63
2017-06-13T11:56:17.479Z,19.96
2017-06-13T11:57:18.060Z,19.55
2017-06-13T11:58:18.666Z,19.69
2017-06-13T11:59:19.246Z,19.76
2017-06-13T12:00:19.826Z,19.92
2017-06-13T12:01:20.408Z,19.89
2017-06-13T12:02:20.990Z,19.94
2017-06-13T12:03:21.572Z,19.91
2017-06-13T12:04:22.152Z,19.67
2017-06-13T12:05:22.732Z,19.59
2017-06-13T12:06:23.314Z,19.85
2017-06-13T12:07:23.896Z,19.58
2017-06-13T12:08:24.477Z,19.54
2017-06-13T12:09:25.069Z,19.31
2017-06-13T12:10:25.651Z,19.30
2017-06-13T12:11:26.232Z,19.24
2017-06-13T12:12:26.825Z,19.29
2017-06-13T12:13:27.407Z,19.30
2017-06-13T12:14:28.034Z,19.37
2017-06-13T12:15:28.615Z,19.19
2017-06-13T12:16:29.198Z,19.04
2017-06-13T12:17:29.778Z,19.11
2017-06-13T12:18:30.358Z,19.07
2017-06-13T12:19:30.939Z,19.27
2017-06-13T12:20:31.531Z,19.26
2017-06-13T12:21:32.111Z,19.29
2017-06-13T12:22:32.692Z,19.34
2017-06-13T12:23:33.273Z,19.47
2017-06-13T12:24:33.855Z,19.58
2017-06-13T12:25:34.465Z,19.55
2017-06-13T12:26:35.047Z,19.51
2017-06-13T12:27:35.628Z,19.63
2017-06-13T12:28:36.224Z,19.48
2017-06-13T12:29:36.803Z,19.48
2017-06-13T12:30:37.383Z,19.37
2017-06-13T12:31:37.963Z,19.36
2017-06-13T12:32:38.543Z,19.44
2017-06-13T12:33:39.123Z,19.49
2017-06-13T12:34:39.706Z,19.26
2017-06-13T12:35:40.287Z,19.51
2017-06-13T12:36:40.880Z,19.44
2017-06-13T12:37:41.462Z,19.74
2017-06-13T12:38:42.042Z,19.66
2017-06-13T12:39:42.622Z,19.51
2017-06-13T12:40:43.202Z,19.56
2017-06-13T12:41:43.783Z,19.37
2017-06-13T12:42:44.365Z,19.52
2017-06-13T12:43:44.944Z,19.30
2017-06-13T12:44:45.526Z,19.33
2017-06-13T12:45:46.110Z,19.40
2017-06-13T12:46:46.686Z,19.39
2017-06-13T12:47:47.268Z,19.27
2017-06-13T12:48:47.848Z,19.07
2017-06-13T12:49:48.431Z,19.34
2017-06-13T12:50:49.024Z,19.26
2017-06-13T12:51:49.603Z,19.31
2017-06-13T12:52:50.186Z,19.44
2017-06-13T12:53:50.766Z,19.44
2017-06-13T12:54:51.346Z,19.73
2017-06-13T12:55:51.928Z,19.69
2017-06-13T12:56:52.511Z,19.56
2017-06-13T12:57:53.091Z,19.67
2017-06-13T12:58:53.672Z,19.85
2017-06-13T12:59:54.252Z,19.74